sensor_id;sensor_type;location;lat;lon;timestamp;pressure;altitude;pressure_sealevel;temperature;humidity
64158;BME280;50449;51.528;5.076;2023-09-08T00:00:30;101560.03;;;28.97;43.16
64158;BME280;50449;51.528;5.076;2023-09-08T00:02:55;101558.78;;;28.95;43.09
64158;BME280;50449;51.528;5.076;2023-09-08T00:05:21;101560.28;;;28.92;43.16
64158;BME280;50449;51.528;5.076;2023-09-08T00:07:46;101562.97;;;28.88;43.22
64158;BME280;50449;51.528;5.076;2023-09-08T00:10:11;101562.81;;;28.85;43.47
64158;BME280;50449;51.528;5.076;2023-09-08T00:12:37;101565.97;;;28.83;43.32
64158;BME280;50449;51.528;5.076;2023-09-08T00:15:03;101573.03;;;28.81;43.15
64158;BME280;50449;51.528;5.076;2023-09-08T00:17:29;101568.97;;;28.78;43.10
64158;BME280;50449;51.528;5.076;2023-09-08T00:19:57;101573.28;;;28.76;43.10
64158;BME280;50449;51.528;5.076;2023-09-08T00:22:23;101581.16;;;28.74;43.18
64158;BME280;50449;51.528;5.076;2023-09-08T00:24:48;101573.50;;;28.71;43.23
64158;BME280;50449;51.528;5.076;2023-09-08T00:27:13;101579.72;;;28.67;43.12
64158;BME280;50449;51.528;5.076;2023-09-08T00:29:39;101570.94;;;28.65;43.21
64158;BME280;50449;51.528;5.076;2023-09-08T00:32:05;101579.63;;;28.64;43.14
64158;BME280;50449;51.528;5.076;2023-09-08T00:34:30;101570.00;;;28.61;43.06
64158;BME280;50449;51.528;5.076;2023-09-08T00:36:56;101565.94;;;28.59;43.14
64158;BME280;50449;51.528;5.076;2023-09-08T00:39:21;101565.47;;;28.57;42.98
64158;BME280;50449;51.528;5.076;2023-09-08T00:41:47;101575.31;;;28.54;43.13
64158;BME280;50449;51.528;5.076;2023-09-08T00:44:12;101568.47;;;28.52;43.04
64158;BME280;50449;51.528;5.076;2023-09-08T00:46:39;101569.66;;;28.51;43.16
64158;BME280;50449;51.528;5.076;2023-09-08T00:49:05;101571.16;;;28.48;43.12
64158;BME280;50449;51.528;5.076;2023-09-08T00:51:31;101565.13;;;28.46;43.07
64158;BME280;50449;51.528;5.076;2023-09-08T00:53:56;101572.16;;;28.43;43.26
64158;BME280;50449;51.528;5.076;2023-09-08T00:56:23;101573.28;;;28.42;43.19
64158;BME280;50449;51.528;5.076;2023-09-08T00:58:49;101567.28;;;28.40;42.94
64158;BME280;50449;51.528;5.076;2023-09-08T01:01:15;101568.44;;;28.39;43.16
64158;BME280;50449;51.528;5.076;2023-09-08T01:03:42;101569.13;;;28.36;43.01
64158;BME280;50449;51.528;5.076;2023-09-08T01:06:08;101570.63;;;28.34;43.05
64158;BME280;50449;51.528;5.076;2023-09-08T01:08:35;101570.16;;;28.32;43.21
64158;BME280;50449;51.528;5.076;2023-09-08T01:11:01;101568.88;;;28.29;43.03
64158;BME280;50449;51.528;5.076;2023-09-08T01:13:27;101570.03;;;28.28;43.08
64158;BME280;50449;51.528;5.076;2023-09-08T01:15:52;101562.03;;;28.26;43.09
64158;BME280;50449;51.528;5.076;2023-09-08T01:18:18;101568.28;;;28.23;43.04
64158;BME280;50449;51.528;5.076;2023-09-08T01:26:56;101566.75;;;28.14;43.20
64158;BME280;50449;51.528;5.076;2023-09-08T01:29:22;101575.41;;;28.12;43.08
64158;BME280;50449;51.528;5.076;2023-09-08T01:31:50;101575.78;;;28.11;43.12
64158;BME280;50449;51.528;5.076;2023-09-08T01:34:17;101572.50;;;28.09;43.11
64158;BME280;50449;51.528;5.076;2023-09-08T01:36:45;101568.13;;;28.08;42.96
64158;BME280;50449;51.528;5.076;2023-09-08T01:39:10;101563.72;;;28.07;42.91
64158;BME280;50449;51.528;5.076;2023-09-08T01:41:36;101568.78;;;28.04;42.91
64158;BME280;50449;51.528;5.076;2023-09-08T01:44:01;101555.25;;;28.03;43.27
64158;BME280;50449;51.528;5.076;2023-09-08T01:46:33;101563.13;;;28.01;43.02
64158;BME280;50449;51.528;5.076;2023-09-08T01:48:59;101564.63;;;27.98;42.83
64158;BME280;50449;51.528;5.076;2023-09-08T01:51:24;101564.94;;;27.97;43.02
64158;BME280;50449;51.528;5.076;2023-09-08T01:53:49;101558.94;;;27.95;43.05
64158;BME280;50449;51.528;5.076;2023-09-08T01:56:15;101560.44;;;27.92;43.27
64158;BME280;50449;51.528;5.076;2023-09-08T01:58:40;101557.19;;;27.90;43.28
64158;BME280;50449;51.528;5.076;2023-09-08T02:01:05;101555.91;;;27.88;43.20
64158;BME280;50449;51.528;5.076;2023-09-08T02:03:34;101560.97;;;27.86;43.31
64158;BME280;50449;51.528;5.076;2023-09-08T02:06:00;101558.53;;;27.84;42.83
64158;BME280;50449;51.528;5.076;2023-09-08T02:08:25;101560.84;;;27.82;43.05
64158;BME280;50449;51.528;5.076;2023-09-08T02:10:50;101561.50;;;27.79;43.26
64158;BME280;50449;51.528;5.076;2023-09-08T02:13:16;101562.19;;;27.76;43.17
64158;BME280;50449;51.528;5.076;2023-09-08T02:15:41;101556.94;;;27.74;43.23
64158;BME280;50449;51.528;5.076;2023-09-08T02:18:07;101554.06;;;27.71;42.99
64158;BME280;50449;51.528;5.076;2023-09-08T02:20:33;101555.53;;;27.68;43.18
64158;BME280;50449;51.528;5.076;2023-09-08T02:23:04;101550.69;;;27.65;43.34
64158;BME280;50449;51.528;5.076;2023-09-08T02:25:30;101551.00;;;27.63;43.23
64158;BME280;50449;51.528;5.076;2023-09-08T02:27:55;101546.94;;;27.61;43.34
64158;BME280;50449;51.528;5.076;2023-09-08T02:30:21;101554.78;;;27.59;43.12
64158;BME280;50449;51.528;5.076;2023-09-08T02:32:46;101551.91;;;27.55;42.94
64158;BME280;50449;51.528;5.076;2023-09-08T02:35:11;101553.38;;;27.53;43.33
64158;BME280;50449;51.528;5.076;2023-09-08T02:37:37;101550.13;;;27.51;43.38
64158;BME280;50449;51.528;5.076;2023-09-08T02:40:02;101552.44;;;27.49;43.57
64158;BME280;50449;51.528;5.076;2023-09-08T02:42:29;101549.19;;;27.47;43.18
64158;BME280;50449;51.528;5.076;2023-09-08T02:44:54;101557.84;;;27.45;43.09
64158;BME280;50449;51.528;5.076;2023-09-08T02:47:20;101558.53;;;27.42;43.37
64158;BME280;50449;51.528;5.076;2023-09-08T02:49:45;101548.94;;;27.39;43.28
64158;BME280;50449;51.528;5.076;2023-09-08T02:52:10;101553.19;;;27.37;43.33
64158;BME280;50449;51.528;5.076;2023-09-08T02:54:36;101552.72;;;27.35;43.18
64158;BME280;50449;51.528;5.076;2023-09-08T02:57:01;101547.84;;;27.32;43.43
64158;BME280;50449;51.528;5.076;2023-09-08T02:59:26;101554.03;;;27.29;43.50
64158;BME280;50449;51.528;5.076;2023-09-08T03:01:52;101551.94;;;27.26;43.41
64158;BME280;50449;51.528;5.076;2023-09-08T03:04:17;101547.56;;;27.25;43.22
64158;BME280;50449;51.528;5.076;2023-09-08T03:06:43;101549.84;;;27.23;43.62
64158;BME280;50449;51.528;5.076;2023-09-08T03:09:08;101552.16;;;27.21;43.56
64158;BME280;50449;51.528;5.076;2023-09-08T03:11:33;101549.72;;;27.19;43.33
64158;BME280;50449;51.528;5.076;2023-09-08T03:13:59;101547.25;;;27.17;43.54
64158;BME280;50449;51.528;5.076;2023-09-08T03:16:24;101543.19;;;27.15;43.26
64158;BME280;50449;51.528;5.076;2023-09-08T03:18:50;101541.91;;;27.12;43.33
64158;BME280;50449;51.528;5.076;2023-09-08T03:21:15;101546.16;;;27.10;43.26
64158;BME280;50449;51.528;5.076;2023-09-08T03:23:43;101544.50;;;27.09;43.37
64158;BME280;50449;51.528;5.076;2023-09-08T03:26:09;101544.38;;;27.05;43.43
64158;BME280;50449;51.528;5.076;2023-09-08T03:28:35;101549.44;;;27.03;43.21
64158;BME280;50449;51.528;5.076;2023-09-08T03:31:03;101542.63;;;27.01;43.66
64158;BME280;50449;51.528;5.076;2023-09-08T03:33:28;101541.81;;;27.00;43.39
64158;BME280;50449;51.528;5.076;2023-09-08T03:35:53;101540.03;;;26.95;43.38
64158;BME280;50449;51.528;5.076;2023-09-08T03:38:20;101536.47;;;26.95;43.33
64158;BME280;50449;51.528;5.076;2023-09-08T03:40:46;101530.78;;;26.91;43.41
64158;BME280;50449;51.528;5.076;2023-09-08T03:43:11;101530.31;;;26.89;43.50
64158;BME280;50449;51.528;5.076;2023-09-08T03:45:36;101527.84;;;26.88;43.41
64158;BME280;50449;51.528;5.076;2023-09-08T03:48:02;101524.59;;;26.86;43.72
64158;BME280;50449;51.528;5.076;2023-09-08T03:50:27;101520.53;;;26.83;43.55
64158;BME280;50449;51.528;5.076;2023-09-08T03:52:53;101526.44;;;26.82;43.73
64158;BME280;50449;51.528;5.076;2023-09-08T03:55:19;101525.13;;;26.79;43.63
64158;BME280;50449;51.528;5.076;2023-09-08T03:57:44;101523.00;;;26.76;43.39
64158;BME280;50449;51.528;5.076;2023-09-08T04:00:10;101527.75;;;26.75;43.44
64158;BME280;50449;51.528;5.076;2023-09-08T04:02:36;101524.84;;;26.72;43.48
64158;BME280;50449;51.528;5.076;2023-09-08T04:05:02;101519.63;;;26.70;43.54
64158;BME280;50449;51.528;5.076;2023-09-08T04:07:27;101529.91;;;26.70;43.85
64158;BME280;50449;51.528;5.076;2023-09-08T04:09:52;101524.22;;;26.66;43.65
64158;BME280;50449;51.528;5.076;2023-09-08T04:12:18;101529.75;;;26.66;43.74
64158;BME280;50449;51.528;5.076;2023-09-08T04:14:43;101526.84;;;26.63;43.43
64158;BME280;50449;51.528;5.076;2023-09-08T04:17:09;101524.41;;;26.61;43.42
64158;BME280;50449;51.528;5.076;2023-09-08T04:19:34;101529.47;;;26.59;43.72
64158;BME280;50449;51.528;5.076;2023-09-08T04:21:59;101522.63;;;26.57;43.72
64158;BME280;50449;51.528;5.076;2023-09-08T04:24:25;101525.72;;;26.55;43.46
64158;BME280;50449;51.528;5.076;2023-09-08T04:26:51;101522.47;;;26.53;43.71
64158;BME280;50449;51.528;5.076;2023-09-08T04:29:16;101523.09;;;26.50;43.69
64158;BME280;50449;51.528;5.076;2023-09-08T04:31:41;101521.50;;;26.49;43.65
64158;BME280;50449;51.528;5.076;2023-09-08T04:34:07;101517.44;;;26.46;43.89
64158;BME280;50449;51.528;5.076;2023-09-08T04:36:32;101526.06;;;26.45;43.56
64158;BME280;50449;51.528;5.076;2023-09-08T04:38:58;101517.25;;;26.43;43.58
64158;BME280;50449;51.528;5.076;2023-09-08T04:41:23;101522.66;;;26.39;43.87
64158;BME280;50449;51.528;5.076;2023-09-08T04:43:48;101511.91;;;26.38;43.57
64158;BME280;50449;51.528;5.076;2023-09-08T04:46:14;101516.97;;;26.36;43.56
64158;BME280;50449;51.528;5.076;2023-09-08T04:48:39;101519.28;;;26.33;43.53
64158;BME280;50449;51.528;5.076;2023-09-08T04:51:04;101517.97;;;26.31;44.15
64158;BME280;50449;51.528;5.076;2023-09-08T04:53:30;101525.44;;;26.30;43.89
64158;BME280;50449;51.528;5.076;2023-09-08T04:55:55;101531.34;;;26.29;43.71
64158;BME280;50449;51.528;5.076;2023-09-08T04:58:21;101527.28;;;26.26;43.77
64158;BME280;50449;51.528;5.076;2023-09-08T05:00:46;101527.59;;;26.25;43.78
64158;BME280;50449;51.528;5.076;2023-09-08T05:03:12;101527.44;;;26.21;43.80
64158;BME280;50449;51.528;5.076;2023-09-08T05:05:37;101534.47;;;26.19;43.80
64158;BME280;50449;51.528;5.076;2023-09-08T05:08:03;101530.41;;;26.16;43.86
64158;BME280;50449;51.528;5.076;2023-09-08T05:10:29;101529.56;;;26.16;43.65
64158;BME280;50449;51.528;5.076;2023-09-08T05:12:54;101533.00;;;26.12;43.90
64158;BME280;50449;51.528;5.076;2023-09-08T05:15:20;101531.03;;;26.13;43.81
64158;BME280;50449;51.528;5.076;2023-09-08T05:17:46;101529.72;;;26.10;44.01
64158;BME280;50449;51.528;5.076;2023-09-08T05:20:12;101539.50;;;26.08;43.79
64158;BME280;50449;51.528;5.076;2023-09-08T05:22:37;101539.88;;;26.06;43.86
64158;BME280;50449;51.528;5.076;2023-09-08T05:25:03;101533.84;;;26.04;43.89
64158;BME280;50449;51.528;5.076;2023-09-08T05:27:29;101532.53;;;26.02;44.00
64158;BME280;50449;51.528;5.076;2023-09-08T05:29:54;101534.50;;;26.01;43.65
64158;BME280;50449;51.528;5.076;2023-09-08T05:32:20;101542.31;;;25.99;43.80
64158;BME280;50449;51.528;5.076;2023-09-08T05:34:45;101535.97;;;25.99;44.09
64158;BME280;50449;51.528;5.076;2023-09-08T05:37:11;101541.81;;;25.97;43.78
64158;BME280;50449;51.528;5.076;2023-09-08T05:39:36;101541.00;;;25.97;43.96
64158;BME280;50449;51.528;5.076;2023-09-08T05:42:01;101542.16;;;25.96;43.57
64158;BME280;50449;51.528;5.076;2023-09-08T05:44:27;101544.75;;;25.92;43.76
64158;BME280;50449;51.528;5.076;2023-09-08T05:46:52;101543.16;;;25.91;43.87
64158;BME280;50449;51.528;5.076;2023-09-08T05:49:18;101545.09;;;25.90;43.60
64158;BME280;50449;51.528;5.076;2023-09-08T05:51:44;101541.84;;;25.88;43.70
64158;BME280;50449;51.528;5.076;2023-09-08T05:54:10;101542.97;;;25.87;43.75
64158;BME280;50449;51.528;5.076;2023-09-08T05:56:37;101541.34;;;25.86;43.92
64158;BME280;50449;51.528;5.076;2023-09-08T05:59:02;101541.66;;;25.85;43.80
64158;BME280;50449;51.528;5.076;2023-09-08T06:01:29;101546.38;;;25.84;43.59
64158;BME280;50449;51.528;5.076;2023-09-08T06:03:54;101547.53;;;25.83;43.50
64158;BME280;50449;51.528;5.076;2023-09-08T06:06:20;101552.88;;;25.80;43.65
64158;BME280;50449;51.528;5.076;2023-09-08T06:08:46;101551.25;;;25.79;43.88
64158;BME280;50449;51.528;5.076;2023-09-08T06:11:12;101553.53;;;25.77;44.02
64158;BME280;50449;51.528;5.076;2023-09-08T06:13:37;101564.91;;;25.75;43.86
64158;BME280;50449;51.528;5.076;2023-09-08T06:16:03;101563.63;;;25.73;43.54
64158;BME280;50449;51.528;5.076;2023-09-08T06:18:28;101566.72;;;25.71;43.78
64158;BME280;50449;51.528;5.076;2023-09-08T06:20:57;101562.31;;;25.70;43.94
64158;BME280;50449;51.528;5.076;2023-09-08T06:23:23;101558.25;;;25.67;44.00
64158;BME280;50449;51.528;5.076;2023-09-08T06:25:49;101561.34;;;25.66;43.89
64158;BME280;50449;51.528;5.076;2023-09-08T06:28:14;101560.56;;;25.65;43.94
64158;BME280;50449;51.528;5.076;2023-09-08T06:30:40;101554.53;;;25.63;43.90
64158;BME280;50449;51.528;5.076;2023-09-08T06:33:10;101564.78;;;25.63;43.69
64158;BME280;50449;51.528;5.076;2023-09-08T06:35:35;101568.16;;;25.60;43.87
64158;BME280;50449;51.528;5.076;2023-09-08T06:38:01;101565.75;;;25.58;43.75
64158;BME280;50449;51.528;5.076;2023-09-08T06:40:29;101571.28;;;25.58;43.83
64158;BME280;50449;51.528;5.076;2023-09-08T06:42:54;101569.97;;;25.56;43.85
64158;BME280;50449;51.528;5.076;2023-09-08T06:45:20;101567.53;;;25.54;43.76
64158;BME280;50449;51.528;5.076;2023-09-08T06:47:45;101572.25;;;25.54;43.60
64158;BME280;50449;51.528;5.076;2023-09-08T06:50:11;101577.28;;;25.52;44.03
64158;BME280;50449;51.528;5.076;2023-09-08T06:52:36;101585.59;;;25.52;43.96
64158;BME280;50449;51.528;5.076;2023-09-08T06:55:02;101578.44;;;25.51;43.71
64158;BME280;50449;51.528;5.076;2023-09-08T06:57:27;101575.66;;;25.51;43.92
64158;BME280;50449;51.528;5.076;2023-09-08T06:59:53;101575.19;;;25.48;44.15
64158;BME280;50449;51.528;5.076;2023-09-08T07:02:18;101578.75;;;25.49;43.74
64158;BME280;50449;51.528;5.076;2023-09-08T07:04:44;101577.13;;;25.48;44.02
64158;BME280;50449;51.528;5.076;2023-09-08T07:07:09;101578.25;;;25.47;43.68
64158;BME280;50449;51.528;5.076;2023-09-08T07:09:36;101579.91;;;25.48;43.91
64158;BME280;50449;51.528;5.076;2023-09-08T07:12:03;101583.47;;;25.48;43.77
64158;BME280;50449;51.528;5.076;2023-09-08T07:14:29;101580.72;;;25.48;43.85
64158;BME280;50449;51.528;5.076;2023-09-08T07:16:54;101579.91;;;25.48;43.90
64158;BME280;50449;51.528;5.076;2023-09-08T07:19:19;101585.09;;;25.50;44.15
64158;BME280;50449;51.528;5.076;2023-09-08T07:21:45;101581.50;;;25.49;44.03
64158;BME280;50449;51.528;5.076;2023-09-08T07:24:10;101582.31;;;25.50;44.08
64158;BME280;50449;51.528;5.076;2023-09-08T07:26:36;101588.66;;;25.50;43.72
64158;BME280;50449;51.528;5.076;2023-09-08T07:29:01;101591.44;;;25.50;44.14
64158;BME280;50449;51.528;5.076;2023-09-08T07:31:26;101583.97;;;25.51;43.74
64158;BME280;50449;51.528;5.076;2023-09-08T07:33:52;101588.34;;;25.52;44.03
64158;BME280;50449;51.528;5.076;2023-09-08T07:36:17;101584.44;;;25.53;44.11
64158;BME280;50449;51.528;5.076;2023-09-08T07:38:43;101591.94;;;25.52;43.97
64158;BME280;50449;51.528;5.076;2023-09-08T07:41:08;101592.72;;;25.53;44.06
64158;BME280;50449;51.528;5.076;2023-09-08T07:43:33;101584.44;;;25.53;44.05
64158;BME280;50449;51.528;5.076;2023-09-08T07:45:59;101578.59;;;25.54;43.87
64158;BME280;50449;51.528;5.076;2023-09-08T07:48:24;101580.53;;;25.54;43.86
64158;BME280;50449;51.528;5.076;2023-09-08T07:50:50;101585.78;;;25.55;44.20
64158;BME280;50449;51.528;5.076;2023-09-08T07:53:15;101583.00;;;25.55;44.02
64158;BME280;50449;51.528;5.076;2023-09-08T07:55:41;101577.94;;;25.57;44.25
64158;BME280;50449;51.528;5.076;2023-09-08T07:58:08;101580.38;;;25.59;44.18
64158;BME280;50449;51.528;5.076;2023-09-08T08:00:33;101582.00;;;25.60;44.29
64158;BME280;50449;51.528;5.076;2023-09-08T08:02:59;101571.44;;;25.62;44.13
64158;BME280;50449;51.528;5.076;2023-09-08T08:05:24;101577.47;;;25.64;44.46
64158;BME280;50449;51.528;5.076;2023-09-08T08:07:50;101575.50;;;25.64;44.70
64158;BME280;50449;51.528;5.076;2023-09-08T08:10:17;101570.16;;;25.68;44.55
64158;BME280;50449;51.528;5.076;2023-09-08T08:12:43;101571.09;;;25.72;44.47
64158;BME280;50449;51.528;5.076;2023-09-08T08:15:09;101576.16;;;25.79;44.48
64158;BME280;50449;51.528;5.076;2023-09-08T08:17:38;101568.81;;;25.83;44.70
64158;BME280;50449;51.528;5.076;2023-09-08T08:20:05;101579.28;;;25.86;44.84
64158;BME280;50449;51.528;5.076;2023-09-08T08:22:33;101581.91;;;25.91;45.03
64158;BME280;50449;51.528;5.076;2023-09-08T08:24:58;101588.38;;;25.95;45.32
64158;BME280;50449;51.528;5.076;2023-09-08T08:27:24;101590.97;;;26.00;45.56
64158;BME280;50449;51.528;5.076;2023-09-08T08:29:49;101576.50;;;26.03;45.47
64158;BME280;50449;51.528;5.076;2023-09-08T08:32:16;101576.66;;;26.07;45.41
64158;BME280;50449;51.528;5.076;2023-09-08T08:34:41;101577.97;;;26.09;45.46
64158;BME280;50449;51.528;5.076;2023-09-08T08:37:07;101581.72;;;26.14;45.59
64158;BME280;50449;51.528;5.076;2023-09-08T08:39:32;101587.41;;;26.17;45.82
64158;BME280;50449;51.528;5.076;2023-09-08T08:41:57;101586.41;;;26.22;45.62
64158;BME280;50449;51.528;5.076;2023-09-08T08:44:23;101586.25;;;26.27;45.98
64158;BME280;50449;51.528;5.076;2023-09-08T08:46:49;101588.03;;;26.31;45.75
64158;BME280;50449;51.528;5.076;2023-09-08T08:49:15;101588.16;;;26.35;45.99
64158;BME280;50449;51.528;5.076;2023-09-08T08:51:44;101579.69;;;26.40;45.84
64158;BME280;50449;51.528;5.076;2023-09-08T08:54:12;101580.31;;;26.46;46.27
64158;BME280;50449;51.528;5.076;2023-09-08T08:56:38;101581.78;;;26.52;46.31
64158;BME280;50449;51.528;5.076;2023-09-08T08:59:04;101581.31;;;26.59;46.06
64158;BME280;50449;51.528;5.076;2023-09-08T09:01:37;101573.25;;;26.66;46.42
64158;BME280;50449;51.528;5.076;2023-09-08T09:04:05;101568.03;;;26.73;45.96
64158;BME280;50449;51.528;5.076;2023-09-08T09:06:32;101573.06;;;26.80;45.88
64158;BME280;50449;51.528;5.076;2023-09-08T09:08:58;101576.47;;;26.85;46.29
64158;BME280;50449;51.528;5.076;2023-09-08T09:11:25;101572.69;;;26.90;46.01
64158;BME280;50449;51.528;5.076;2023-09-08T09:13:50;101571.69;;;26.94;46.48
64158;BME280;50449;51.528;5.076;2023-09-08T09:16:16;101579.00;;;26.99;46.17
64158;BME280;50449;51.528;5.076;2023-09-08T09:18:57;101574.41;;;27.03;46.62
64158;BME280;50449;51.528;5.076;2023-09-08T09:21:23;101573.09;;;27.09;46.39
64158;BME280;50449;51.528;5.076;2023-09-08T09:23:49;101577.59;;;27.14;46.59
64158;BME280;50449;51.528;5.076;2023-09-08T09:26:25;101573.06;;;27.18;46.45
64158;BME280;50449;51.528;5.076;2023-09-08T09:28:51;101574.81;;;27.23;46.60
64158;BME280;50449;51.528;5.076;2023-09-08T09:31:22;101579.38;;;27.27;46.63
64158;BME280;50449;51.528;5.076;2023-09-08T09:34:01;101585.03;;;27.31;46.74
64158;BME280;50449;51.528;5.076;2023-09-08T09:36:26;101588.41;;;27.36;46.69
64158;BME280;50449;51.528;5.076;2023-09-08T09:38:51;101581.88;;;27.41;46.82
64158;BME280;50449;51.528;5.076;2023-09-08T09:41:17;101580.06;;;27.45;46.63
64158;BME280;50449;51.528;5.076;2023-09-08T09:43:42;101585.41;;;27.50;47.02
64158;BME280;50449;51.528;5.076;2023-09-08T09:46:09;101576.06;;;27.55;46.63
64158;BME280;50449;51.528;5.076;2023-09-08T09:48:35;101583.38;;;27.59;47.20
64158;BME280;50449;51.528;5.076;2023-09-08T09:51:15;101579.56;;;27.64;46.94
64158;BME280;50449;51.528;5.076;2023-09-08T09:53:42;101572.19;;;27.68;46.99
64158;BME280;50449;51.528;5.076;2023-09-08T09:56:08;101575.94;;;27.72;47.02
64158;BME280;50449;51.528;5.076;2023-09-08T09:58:35;101583.22;;;27.77;46.87
64158;BME280;50449;51.528;5.076;2023-09-08T10:01:02;101583.03;;;27.82;47.04
64158;BME280;50449;51.528;5.076;2023-09-08T10:03:29;101585.63;;;27.87;47.09
64158;BME280;50449;51.528;5.076;2023-09-08T10:05:56;101584.94;;;27.90;47.12
64158;BME280;50449;51.528;5.076;2023-09-08T10:08:22;101585.88;;;27.94;47.19
64158;BME280;50449;51.528;5.076;2023-09-08T10:10:47;101582.44;;;27.97;47.36
64158;BME280;50449;51.528;5.076;2023-09-08T10:13:18;101581.41;;;28.02;47.34
64158;BME280;50449;51.528;5.076;2023-09-08T10:15:49;101580.03;;;28.08;47.44
64158;BME280;50449;51.528;5.076;2023-09-08T10:18:16;101574.59;;;28.12;47.34
64158;BME280;50449;51.528;5.076;2023-09-08T10:20:44;101581.91;;;28.16;47.34
64158;BME280;50449;51.528;5.076;2023-09-08T10:23:29;101576.50;;;28.20;47.09
64158;BME280;50449;51.528;5.076;2023-09-08T10:25:59;101566.31;;;28.24;47.25
64158;BME280;50449;51.528;5.076;2023-09-08T10:28:28;101571.19;;;28.27;47.22
64158;BME280;50449;51.528;5.076;2023-09-08T10:30:55;101569.34;;;28.31;47.31
64158;BME280;50449;51.528;5.076;2023-09-08T10:33:21;101571.91;;;28.36;47.43
64158;BME280;50449;51.528;5.076;2023-09-08T10:35:49;101577.56;;;28.40;47.41
64158;BME280;50449;51.528;5.076;2023-09-08T10:40:50;101573.47;;;28.46;47.24
64158;BME280;50449;51.528;5.076;2023-09-08T10:43:15;101572.44;;;28.51;47.35
64158;BME280;50449;51.528;5.076;2023-09-08T10:45:41;101570.56;;;28.55;47.49
64158;BME280;50449;51.528;5.076;2023-09-08T10:48:09;101575.91;;;28.60;47.40
64158;BME280;50449;51.528;5.076;2023-09-08T10:50:39;101568.50;;;28.64;47.29
64158;BME280;50449;51.528;5.076;2023-09-08T10:53:18;101563.88;;;28.68;47.30
64158;BME280;50449;51.528;5.076;2023-09-08T10:55:48;101565.16;;;28.71;47.16
64158;BME280;50449;51.528;5.076;2023-09-08T10:58:33;101578.38;;;28.74;47.32
64158;BME280;50449;51.528;5.076;2023-09-08T11:01:00;101568.97;;;28.78;47.32
64158;BME280;50449;51.528;5.076;2023-09-08T11:06:04;101574.78;;;28.85;47.35
64158;BME280;50449;51.528;5.076;2023-09-08T11:08:32;101562.97;;;28.88;47.43
64158;BME280;50449;51.528;5.076;2023-09-08T11:10:57;101572.22;;;28.92;47.30
64158;BME280;50449;51.528;5.076;2023-09-08T11:13:23;101565.13;;;28.95;47.41
64158;BME280;50449;51.528;5.076;2023-09-08T11:15:52;101565.28;;;28.99;47.25
64158;BME280;50449;51.528;5.076;2023-09-08T11:18:31;101562.59;;;29.02;47.48
64158;BME280;50449;51.528;5.076;2023-09-08T11:21:00;101565.16;;;29.07;47.30
64158;BME280;50449;51.528;5.076;2023-09-08T11:23:26;101569.22;;;29.10;47.27
64158;BME280;50449;51.528;5.076;2023-09-08T11:25:52;101574.91;;;29.14;47.29
64158;BME280;50449;51.528;5.076;2023-09-08T11:28:21;101573.41;;;29.16;47.40
64158;BME280;50449;51.528;5.076;2023-09-08T11:30:47;101563.53;;;29.19;47.21
64158;BME280;50449;51.528;5.076;2023-09-08T11:33:19;101568.06;;;29.23;46.94
64158;BME280;50449;51.528;5.076;2023-09-08T11:35:50;101569.34;;;29.26;47.11
64158;BME280;50449;51.528;5.076;2023-09-08T11:38:16;101563.06;;;29.29;47.15
64158;BME280;50449;51.528;5.076;2023-09-08T11:40:41;101560.38;;;29.32;46.79
64158;BME280;50449;51.528;5.076;2023-09-08T11:43:07;101558.06;;;29.34;47.24
64158;BME280;50449;51.528;5.076;2023-09-08T11:45:36;101561.78;;;29.39;47.02
64158;BME280;50449;51.528;5.076;2023-09-08T11:48:03;101559.88;;;29.43;47.32
64158;BME280;50449;51.528;5.076;2023-09-08T11:50:30;101558.03;;;29.47;47.49
64158;BME280;50449;51.528;5.076;2023-09-08T11:52:56;101560.09;;;29.50;47.56
64158;BME280;50449;51.528;5.076;2023-09-08T11:55:24;101561.84;;;29.54;47.20
64158;BME280;50449;51.528;5.076;2023-09-08T11:57:52;101558.00;;;29.59;47.38
64158;BME280;50449;51.528;5.076;2023-09-08T12:00:26;101554.50;;;29.62;47.45
64158;BME280;50449;51.528;5.076;2023-09-08T12:02:52;101569.38;;;29.66;47.27
64158;BME280;50449;51.528;5.076;2023-09-08T12:05:25;101563.91;;;29.70;47.57
64158;BME280;50449;51.528;5.076;2023-09-08T12:07:51;101563.19;;;29.73;47.67
64158;BME280;50449;51.528;5.076;2023-09-08T12:10:17;101561.66;;;29.75;47.36
64158;BME280;50449;51.528;5.076;2023-09-08T12:12:53;101557.38;;;29.78;47.84
64158;BME280;50449;51.528;5.076;2023-09-08T12:15:39;101561.41;;;29.81;47.73
64158;BME280;50449;51.528;5.076;2023-09-08T12:18:08;101556.44;;;29.86;47.66
64158;BME280;50449;51.528;5.076;2023-09-08T12:20:35;101553.72;;;29.90;47.91
64158;BME280;50449;51.528;5.076;2023-09-08T12:23:05;101553.47;;;29.95;47.90
64158;BME280;50449;51.528;5.076;2023-09-08T12:25:32;101554.41;;;29.99;47.88
64158;BME280;50449;51.528;5.076;2023-09-08T12:27:59;101551.34;;;30.04;47.84
64158;BME280;50449;51.528;5.076;2023-09-08T12:30:26;101549.09;;;30.10;47.92
64158;BME280;50449;51.528;5.076;2023-09-08T12:32:56;101548.03;;;30.14;47.86
64158;BME280;50449;51.528;5.076;2023-09-08T12:35:23;101550.56;;;30.19;47.82
64158;BME280;50449;51.528;5.076;2023-09-08T12:38:01;101547.53;;;30.25;47.98
64158;BME280;50449;51.528;5.076;2023-09-08T12:40:29;101545.28;;;30.30;48.06
64158;BME280;50449;51.528;5.076;2023-09-08T12:42:55;101547.00;;;30.35;48.17
64158;BME280;50449;51.528;5.076;2023-09-08T12:45:22;101548.34;;;30.41;48.31
64158;BME280;50449;51.528;5.076;2023-09-08T12:47:50;101547.28;;;30.46;48.11
64158;BME280;50449;51.528;5.076;2023-09-08T12:50:15;101541.44;;;30.51;48.06
64158;BME280;50449;51.528;5.076;2023-09-08T12:52:41;101541.97;;;30.56;48.07
64158;BME280;50449;51.528;5.076;2023-09-08T12:55:07;101547.28;;;30.61;48.18
64158;BME280;50449;51.528;5.076;2023-09-08T12:57:33;101542.59;;;30.66;48.07